Bda La Mayor, Puerto Rico
Current Conditions -  °F | °C
As of 10:50 AM on Sunday 23 Nov 2014 (Local Time) from TJBQ Reporting Station
Scattered Clouds Scattered Clouds  
Wind Chill: 82°   Ceiling: Unl
Heat Index: 87°   Visibility: 10mi
Dew Point: 72°   Wind: 17mph
Humidity: 70%   Direction: 90°E
Pressure: 30.07"   Gusts: 23mph
Location:  18.4951°N, 67.0273°W
Report Text: TJBQ 231450Z 09015G20KT 10SM SCT025 28/22 A3007 RMK RWY 08 ATIS I
Loading
Personal Weather Stations






























Interactive Weather Map New forecast layout! Learn more

10-Day Weather Forecast

Advertisements
Track Severe Weather on mobile